• Join FlightAware (Why Join?)
  • Login
  • US Flag 
01:22PM EDT


 

Airport Tracker/Info


-or-


 

Live Flight TrackerFlight Track Log ✈ CSJ405 ✈ 08-May-2013 ✈ KROC - CYHM

Flight Track Log - Related Links

Times and Time Zones

All times are in EDT time to prevent confusion due to time zone crossing. See the CSJ405 flight status page for this flight to view local times or setup timezone preferences in your user account.

Time Position Orientation Groundspeed Altitude Reporting Facility
EDT Latitude Longitude Course Direction KTS MPH feet Rate Location/Type
10:24PM 43.1333 -77.6331 58° Northeast 87 100 1,800  Level Cleveland Center
10:25PM 43.1464 -77.6522 313° West 118 136 2,700 900 Climbing Cleveland Center
10:26PM 43.1453 -77.6978 268° West 127 146 3,700 600 Climbing Cleveland Center
10:27PM 43.1467 -77.7519 272° West 137 158 4,000 60 Climbing Cleveland Center
10:29PM 43.1500 -77.8667 272° West 174 200 4,000  Level Buffalo TRACON
10:30PM 43.1667 -77.9333 289° West 171 197 4,000  Level Buffalo TRACON
10:31PM 43.1667 -78.0000 270° West 171 197 4,000 60 Level Buffalo TRACON
10:31PM 43.1500 -78.0167 216° Southwest 170 196 4,100 60 Climbing Toronto Center
10:32PM 43.1500 -78.0833 270° West 170 196 4,100  Level Toronto Center
10:33PM 43.1333 -78.1500 251° West 170 196 4,100  Level Toronto Center
10:34PM 43.1500 -78.2000 295° West 170 196 4,100  Level Toronto Center
10:35PM 43.1500 -78.2667 270° West 180 207 4,100  Level Toronto Center
10:36PM 43.1500 -78.3333 270° West 180 207 4,100  Level Toronto Center
10:37PM 43.1500 -78.4000 270° West 180 207 4,100  Level Toronto Center
10:38PM 43.1500 -78.4667 270° West 170 196 4,100  Level Toronto Center
10:39PM 43.1667 -78.5333 289° West 180 207 4,100  Level Toronto Center
10:40PM 43.1667 -78.6000 270° West 180 207 4,100  Level Toronto Center
10:41PM 43.1667 -78.6667 270° West 180 207 4,100  Level Toronto Center
10:42PM 43.1667 -78.7500 270° West 180 207 4,100  Level Toronto Center
10:43PM 43.1667 -78.8167 270° West 180 207 4,100 -60 Level Toronto Center
10:44PM 43.1667 -78.8833 270° West 180 207 4,000 -60 Descending Toronto Center
10:45PM 43.1667 -78.9500 270° West 180 207 4,000  Level Toronto Center
10:46PM 43.1667 -79.0167 270° West 180 207 4,000  Level Toronto Center
10:47PM 43.1667 -79.0833 270° West 180 207 4,000  Level Toronto Center
10:48PM 43.1667 -79.1333 270° West 160 184 4,000  Level Toronto Center
10:49PM 43.1667 -79.2000 270° West 160 184 4,000  Level Toronto Center
10:50PM 43.1667 -79.2667 270° West 160 184 4,000  Level Toronto Center
10:51PM 43.1667 -79.3167 270° West 150 173 4,000  Level Toronto Center
10:52PM 43.1667 -79.3833 270° West 140 161 4,000  Level Toronto Center
10:53PM 43.1667 -79.4333 270° West 140 161 4,000  Level Toronto Center
10:54PM 43.1833 -79.4667 304° West 150 173 4,000  Level Toronto Center
10:55PM 43.1833 -79.5333 270° West 160 184 4,000  Level Toronto Center
10:56PM 43.2000 -79.6167 285° West 160 184 4,000  Level Toronto Center
10:57PM 43.2167 -79.6500 304° West 160 184 4,000  Level Toronto Center
10:58PM 43.2167 -79.7167 270° West 160 184 4,000  Level Toronto Center
10:59PM 43.2333 -79.7667 295° West 140 161 4,100  Climbing Toronto Center
11:01PM 43.2500 -79.8667 283° West 131 151 4,000 -60 Descending Buffalo TRACON
11:02PM 43.2667 -79.9167 295° West 132 152 4,000  Level Buffalo TRACON
11:03PM 43.2667 -79.9667 270° West 138 159 4,000  Level Buffalo TRACON
11:04PM 43.2667 -80.0167 270° West 133 153 4,000  Level Buffalo TRACON
11:05PM 43.2500 -80.0667 245° Southwest 131 151 4,000  Level Buffalo TRACON
11:06PM 43.2333 -80.1000 236° Southwest 132 152 4,000  Level Buffalo TRACON
11:07PM 43.2000 -80.1167 200° South 132 152 4,000  Level Buffalo TRACON
11:08PM 43.1667 -80.1500 216° Southwest 131 151 4,000  Level Buffalo TRACON
11:10PM 43.1702 -80.0332 88° East  Level Estimated